Time;durP1;ratioP1;P1;durP2;ratioP2;P2;SDS_P1;SDS_P2;PMS_P1;PMS_P2;Temp;Humidity;BMP_temperature;BMP_pressure;BME280_temperature;BME280_humidity;BME280_pressure;Samples;Min_cycle;Max_cycle;Signal;HPM_P1;HPM_P2
2023/08/31 00:01:09;;;;;;;;;;;14.10;87.60;;;;;;5068026;28;20313;-84
2023/08/31 00:03:35;;;;;;;;;;;14.10;87.40;;;;;;5062108;28;19912;-85
2023/08/31 00:06:04;;;;;;;;;;;14.00;87.30;;;;;;5090593;28;19908;-85
2023/08/31 00:08:29;;;;;;;;;;;14.00;87.20;;;;;;5090043;28;19920;-85
2023/08/31 00:10:58;;;;;;;;;;;14.10;87.10;;;;;;5065382;28;19912;-85
2023/08/31 00:13:24;;;;;;;;;;;14.00;86.90;;;;;;5085390;28;19912;-84
2023/08/31 00:15:49;;;;;;;;;;;14.00;87.20;;;;;;5082078;28;19918;-85
2023/08/31 00:18:16;;;;;;;;;;;14.00;87.20;;;;;;5062583;28;19966;-84
2023/08/31 00:20:42;;;;;;;;;;;14.10;87.40;;;;;;5065999;28;19913;-85
2023/08/31 00:23:08;;;;;;;;;;;14.00;87.20;;;;;;5084434;28;20299;-85
2023/08/31 00:25:33;;;;;;;;;;;14.10;87.50;;;;;;5086228;28;19920;-85
2023/08/31 00:28:04;;;;;;;;;;;14.10;87.60;;;;;;5063967;28;20025;-84
2023/08/31 00:30:30;;;;;;;;;;;14.10;87.80;;;;;;5059392;28;19912;-85
2023/08/31 00:32:59;;;;;;;;;;;14.00;88.50;;;;;;5056273;28;20393;-85
2023/08/31 00:35:26;;;;;;;;;;;14.00;88.80;;;;;;5054185;28;20055;-84
2023/08/31 00:37:55;;;;;;;;;;;13.90;88.60;;;;;;5055796;28;19912;-85
2023/08/31 00:40:20;;;;;;;;;;;14.00;88.10;;;;;;5088982;28;19934;-86
2023/08/31 00:42:46;;;;;;;;;;;14.00;88.10;;;;;;5052878;28;20042;-85
2023/08/31 00:45:11;;;;;;;;;;;14.00;87.50;;;;;;5062104;28;19915;-85
2023/08/31 00:47:37;;;;;;;;;;;14.00;87.30;;;;;;5057255;28;20400;-85
2023/08/31 00:50:03;;;;;;;;;;;14.10;87.20;;;;;;5070011;28;19916;-85
2023/08/31 00:52:28;;;;;;;;;;;14.10;86.80;;;;;;5086029;28;19919;-85
2023/08/31 00:54:54;;;;;;;;;;;14.10;86.80;;;;;;5059256;28;19971;-85
2023/08/31 00:57:19;;;;;;;;;;;14.10;86.90;;;;;;5073942;28;19908;-85
2023/08/31 00:59:45;;;;;;;;;;;14.00;87.10;;;;;;5056949;28;19908;-85
2023/08/31 01:02:13;;;;;;;;;;;14.10;87.50;;;;;;5064705;28;19961;-85
2023/08/31 01:04:39;;;;;;;;;;;14.00;86.90;;;;;;5083196;28;19919;-85
2023/08/31 01:07:19;;;;;;;;;;;14.00;86.80;;;;;;5054441;28;19916;-85
2023/08/31 01:10:05;;;;;;;;;;;13.90;87.30;;;;;;5072312;28;19961;-85
2023/08/31 01:12:40;;;;;;;;;;;13.80;87.00;;;;;;5056067;28;20080;-85
2023/08/31 01:15:10;;;;;;;;;;;13.70;87.60;;;;;;5070809;28;19913;-84
2023/08/31 01:17:42;;;;;;;;;;;13.60;87.30;;;;;;5087554;28;19918;-85
2023/08/31 01:20:08;;;;;;;;;;;13.60;87.60;;;;;;5076045;28;20411;-85
2023/08/31 01:22:37;;;;;;;;;;;13.70;87.00;;;;;;5068887;28;19922;-84
2023/08/31 01:25:04;;;;;;;;;;;13.60;87.00;;;;;;5077376;28;19908;-85
2023/08/31 01:27:32;;;;;;;;;;;13.60;87.40;;;;;;5092298;28;20367;-85
2023/08/31 01:29:58;;;;;;;;;;;13.60;87.70;;;;;;5075473;28;20011;-85
2023/08/31 01:32:23;;;;;;;;;;;13.50;87.70;;;;;;5057164;28;19990;-85
2023/08/31 01:34:50;;;;;;;;;;;13.50;87.50;;;;;;5073003;28;19915;-85
2023/08/31 01:37:17;;;;;;;;;;;13.50;87.60;;;;;;5068591;28;19999;-84
2023/08/31 01:40:01;;;;;;;;;;;13.50;87.60;;;;;;5084424;28;19908;-85
2023/08/31 01:42:30;;;;;;;;;;;13.40;88.20;;;;;;5069013;28;19912;-85
2023/08/31 01:44:56;;;;;;;;;;;13.40;88.10;;;;;;5084666;28;20003;-85
2023/08/31 01:47:22;;;;;;;;;;;13.30;87.80;;;;;;5087061;28;20305;-85
2023/08/31 01:49:47;;;;;;;;;;;13.30;87.90;;;;;;5064432;28;19920;-86
2023/08/31 01:52:13;;;;;;;;;;;13.30;88.00;;;;;;5057816;28;19952;-85
2023/08/31 01:54:38;;;;;;;;;;;13.20;88.10;;;;;;5074980;28;20286;-86
2023/08/31 01:57:05;;;;;;;;;;;13.30;88.00;;;;;;5066086;28;19952;-86
2023/08/31 01:59:31;;;;;;;;;;;13.20;87.90;;;;;;5086678;28;20454;-85
2023/08/31 02:01:56;;;;;;;;;;;13.20;87.80;;;;;;5070151;28;19995;-86
2023/08/31 02:04:22;;;;;;;;;;;13.30;87.30;;;;;;5071578;28;20275;-85
2023/08/31 02:06:47;;;;;;;;;;;13.30;87.70;;;;;;5068977;28;19995;-84
2023/08/31 02:09:13;;;;;;;;;;;13.30;87.90;;;;;;5060242;28;19909;-85
2023/08/31 02:11:39;;;;;;;;;;;13.30;87.70;;;;;;5053878;28;20482;-85
2023/08/31 02:14:05;;;;;;;;;;;13.30;87.50;;;;;;5063817;28;19946;-86
2023/08/31 02:16:31;;;;;;;;;;;13.20;87.70;;;;;;5060717;28;19967;-85
2023/08/31 02:18:57;;;;;;;;;;;13.20;87.80;;;;;;5083388;28;20376;-85
2023/08/31 02:21:22;;;;;;;;;;;13.10;87.90;;;;;;5062540;28;19913;-85
2023/08/31 02:23:48;;;;;;;;;;;13.10;88.10;;;;;;5053086;28;19995;-85
2023/08/31 02:26:13;;;;;;;;;;;13.10;87.50;;;;;;5060933;28;19913;-85
2023/08/31 02:28:39;;;;;;;;;;;13.10;87.60;;;;;;5063305;28;19908;-83
2023/08/31 02:31:04;;;;;;;;;;;13.00;87.30;;;;;;5076769;28;19912;-85
2023/08/31 02:33:30;;;;;;;;;;;13.00;87.30;;;;;;5057561;28;19921;-85
2023/08/31 02:35:55;;;;;;;;;;;13.00;88.10;;;;;;5079278;28;19924;-85
2023/08/31 02:38:21;;;;;;;;;;;12.90;87.40;;;;;;5071026;28;19913;-86
2023/08/31 02:40:47;;;;;;;;;;;12.90;87.60;;;;;;5087515;28;19939;-85
2023/08/31 02:43:13;;;;;;;;;;;12.90;87.70;;;;;;5053157;28;19916;-85
2023/08/31 02:45:38;;;;;;;;;;;12.90;87.70;;;;;;5059942;28;19916;-85
2023/08/31 02:48:06;;;;;;;;;;;13.00;87.10;;;;;;5080919;28;19913;-84
2023/08/31 02:50:31;;;;;;;;;;;12.80;87.20;;;;;;5057344;28;19920;-85
2023/08/31 02:52:57;;;;;;;;;;;12.90;87.40;;;;;;5059400;28;19917;-86
2023/08/31 02:55:22;;;;;;;;;;;13.00;87.10;;;;;;5062252;28;19994;-85
2023/08/31 02:57:48;;;;;;;;;;;12.90;87.50;;;;;;5062451;28;20076;-85
2023/08/31 03:00:14;;;;;;;;;;;12.90;87.40;;;;;;5063538;28;19909;-85
2023/08/31 03:02:40;;;;;;;;;;;13.00;86.70;;;;;;5075085;28;19948;-85
2023/08/31 03:05:06;;;;;;;;;;;12.80;87.10;;;;;;5073499;28;19908;-85
2023/08/31 03:07:32;;;;;;;;;;;12.80;87.20;;;;;;5080807;28;19966;-85
2023/08/31 03:09:57;;;;;;;;;;;12.70;87.30;;;;;;5069773;28;19912;-85
2023/08/31 03:12:23;;;;;;;;;;;12.80;87.70;;;;;;5065924;28;19908;-85
2023/08/31 03:14:48;;;;;;;;;;;12.70;87.80;;;;;;5072481;28;20361;-85
2023/08/31 03:17:14;;;;;;;;;;;12.70;87.80;;;;;;5064319;28;19912;-86
2023/08/31 03:19:39;;;;;;;;;;;12.80;88.00;;;;;;5066557;28;19908;-86
2023/08/31 03:22:05;;;;;;;;;;;12.80;88.00;;;;;;5061054;28;19913;-86
2023/08/31 03:24:32;;;;;;;;;;;12.80;87.90;;;;;;5060462;28;19915;-85
2023/08/31 03:26:57;;;;;;;;;;;12.80;87.40;;;;;;5067362;28;20505;-85
2023/08/31 03:29:23;;;;;;;;;;;12.80;87.40;;;;;;5060509;28;20007;-84
2023/08/31 03:31:48;;;;;;;;;;;12.80;87.20;;;;;;5056131;28;19920;-85
2023/08/31 03:34:14;;;;;;;;;;;12.80;87.50;;;;;;5086442;28;19913;-85
2023/08/31 03:36:40;;;;;;;;;;;12.80;87.70;;;;;;5071841;28;20295;-85
2023/08/31 03:39:05;;;;;;;;;;;12.90;87.50;;;;;;5088339;28;19909;-85
2023/08/31 03:41:31;;;;;;;;;;;12.90;87.40;;;;;;5080104;28;19974;-85
2023/08/31 03:43:56;;;;;;;;;;;12.90;86.90;;;;;;5058707;28;19908;-86
2023/08/31 03:46:22;;;;;;;;;;;12.80;87.10;;;;;;5072101;28;20347;-86
2023/08/31 03:48:47;;;;;;;;;;;12.80;87.30;;;;;;5080749;28;19916;-86
2023/08/31 03:51:13;;;;;;;;;;;12.70;87.50;;;;;;5078193;28;19970;-86
2023/08/31 03:53:39;;;;;;;;;;;12.80;87.50;;;;;;5074632;28;19912;-85
2023/08/31 03:56:04;;;;;;;;;;;12.80;87.30;;;;;;5059751;28;19969;-86
2023/08/31 03:58:30;;;;;;;;;;;12.70;87.50;;;;;;5048566;28;19908;-85
2023/08/31 04:00:56;;;;;;;;;;;12.70;87.80;;;;;;5053564;28;19908;-84
2023/08/31 04:03:21;;;;;;;;;;;12.80;87.50;;;;;;5067006;28;19916;-86
2023/08/31 04:05:47;;;;;;;;;;;12.70;87.50;;;;;;5083873;28;19908;-84
2023/08/31 04:08:13;;;;;;;;;;;12.70;87.60;;;;;;5072173;28;19948;-86
2023/08/31 04:10:38;;;;;;;;;;;12.70;87.40;;;;;;5059285;28;19916;-85
2023/08/31 04:13:04;;;;;;;;;;;12.70;87.40;;;;;;5073751;28;19912;-85
2023/08/31 04:15:30;;;;;;;;;;;12.70;87.50;;;;;;5068708;28;19913;-85
2023/08/31 04:17:56;;;;;;;;;;;12.70;87.60;;;;;;5081124;28;19912;-84
2023/08/31 04:20:22;;;;;;;;;;;12.60;87.80;;;;;;5054784;28;20003;-85
2023/08/31 04:22:47;;;;;;;;;;;12.60;88.00;;;;;;5069153;28;19942;-85
2023/08/31 04:25:13;;;;;;;;;;;12.70;88.20;;;;;;5081177;28;19912;-86
2023/08/31 04:27:41;;;;;;;;;;;12.80;87.90;;;;;;5057769;28;19920;-84
2023/08/31 04:30:07;;;;;;;;;;;12.70;88.10;;;;;;5075389;28;19920;-86
2023/08/31 04:32:33;;;;;;;;;;;12.70;88.20;;;;;;5077085;28;20244;-85
2023/08/31 04:34:58;;;;;;;;;;;12.80;88.10;;;;;;5084614;28;19916;-85
2023/08/31 04:37:23;;;;;;;;;;;12.80;87.90;;;;;;5062172;28;19919;-85
2023/08/31 04:39:49;;;;;;;;;;;12.80;88.00;;;;;;5055227;28;19908;-86
2023/08/31 04:42:16;;;;;;;;;;;12.70;88.20;;;;;;5081320;28;19996;-85
2023/08/31 04:44:42;;;;;;;;;;;12.70;88.00;;;;;;5084139;28;19913;-85
2023/08/31 04:47:07;;;;;;;;;;;12.70;88.10;;;;;;5055753;28;19908;-86
2023/08/31 04:49:33;;;;;;;;;;;12.70;87.90;;;;;;5073045;28;19916;-86
2023/08/31 04:51:58;;;;;;;;;;;12.60;88.00;;;;;;5086946;28;19916;-85
2023/08/31 04:54:24;;;;;;;;;;;12.60;88.10;;;;;;5055277;28;19982;-86
2023/08/31 04:56:50;;;;;;;;;;;12.60;88.20;;;;;;5074577;28;20698;-85
2023/08/31 04:59:16;;;;;;;;;;;12.60;88.20;;;;;;5086649;28;20025;-85
2023/08/31 05:01:41;;;;;;;;;;;12.60;88.40;;;;;;5063354;28;19920;-86
2023/08/31 05:04:07;;;;;;;;;;;12.60;88.30;;;;;;5068295;28;19912;-86
2023/08/31 05:06:35;;;;;;;;;;;12.60;88.20;;;;;;5056614;28;19955;-86
2023/08/31 05:09:00;;;;;;;;;;;12.60;88.30;;;;;;5057194;28;19918;-86
2023/08/31 05:11:26;;;;;;;;;;;12.60;88.40;;;;;;5051437;28;19999;-83
2023/08/31 05:13:51;;;;;;;;;;;12.60;88.40;;;;;;5054249;28;19943;-83
2023/08/31 05:16:16;;;;;;;;;;;12.60;88.40;;;;;;5052346;28;19920;-84
2023/08/31 05:18:42;;;;;;;;;;;12.70;88.10;;;;;;5058988;28;19995;-85
2023/08/31 05:21:07;;;;;;;;;;;12.60;88.30;;;;;;5079366;28;19909;-83
2023/08/31 05:23:33;;;;;;;;;;;12.70;88.30;;;;;;5079709;28;19915;-84
2023/08/31 05:25:58;;;;;;;;;;;12.80;88.10;;;;;;5081955;28;19916;-83
2023/08/31 05:28:24;;;;;;;;;;;12.80;88.10;;;;;;5057621;28;19916;-83
2023/08/31 05:30:55;;;;;;;;;;;12.70;88.10;;;;;;5088456;28;20401;-85
2023/08/31 05:33:22;;;;;;;;;;;12.70;88.20;;;;;;5083248;28;19916;-84
2023/08/31 05:35:47;;;;;;;;;;;12.80;88.30;;;;;;5084120;28;19913;-83
2023/08/31 05:38:13;;;;;;;;;;;12.80;88.30;;;;;;5074186;28;19935;-83
2023/08/31 05:40:38;;;;;;;;;;;12.80;88.00;;;;;;5088046;28;19912;-83
2023/08/31 05:43:04;;;;;;;;;;;12.80;88.10;;;;;;5087863;28;19912;-84
2023/08/31 05:45:33;;;;;;;;;;;12.80;88.30;;;;;;5059096;28;19995;-85
2023/08/31 05:47:58;;;;;;;;;;;12.80;88.30;;;;;;5069646;28;19919;-85
2023/08/31 05:50:25;;;;;;;;;;;12.90;88.40;;;;;;5098761;28;19981;-84
2023/08/31 05:52:57;;;;;;;;;;;12.90;88.50;;;;;;5065815;28;20395;-85
2023/08/31 05:55:22;;;;;;;;;;;12.90;88.60;;;;;;5088556;28;19908;-84
2023/08/31 05:57:48;;;;;;;;;;;13.00;88.30;;;;;;5061850;28;19966;-84
2023/08/31 06:00:14;;;;;;;;;;;13.00;88.20;;;;;;5072695;28;19960;-84
2023/08/31 06:02:39;;;;;;;;;;;13.10;88.20;;;;;;5089372;28;19927;-84
2023/08/31 06:05:05;;;;;;;;;;;13.10;88.40;;;;;;5074668;28;19919;-85
2023/08/31 06:07:31;;;;;;;;;;;13.10;88.10;;;;;;5068627;28;19913;-85
2023/08/31 06:09:57;;;;;;;;;;;13.10;88.10;;;;;;5091757;28;19968;-85
2023/08/31 06:12:22;;;;;;;;;;;13.20;88.10;;;;;;5083699;28;19909;-85
2023/08/31 06:14:48;;;;;;;;;;;13.30;88.00;;;;;;5093670;28;20440;-85
2023/08/31 06:17:13;;;;;;;;;;;13.20;87.90;;;;;;5060230;28;20457;-84
2023/08/31 06:19:39;;;;;;;;;;;13.30;87.90;;;;;;5070422;28;19912;-84
2023/08/31 06:22:05;;;;;;;;;;;13.50;88.00;;;;;;5088353;28;20388;-85
2023/08/31 06:24:32;;;;;;;;;;;13.50;88.00;;;;;;5061476;28;19912;-85
2023/08/31 06:26:57;;;;;;;;;;;13.60;87.70;;;;;;5066791;28;19908;-84
2023/08/31 06:29:23;;;;;;;;;;;13.80;87.60;;;;;;5071216;28;19979;-84
2023/08/31 06:31:48;;;;;;;;;;;13.90;87.30;;;;;;5080259;28;19928;-85
2023/08/31 06:34:14;;;;;;;;;;;14.00;87.00;;;;;;5061429;28;19913;-85
2023/08/31 06:36:39;;;;;;;;;;;13.90;86.70;;;;;;5062669;28;19912;-84
2023/08/31 06:39:05;;;;;;;;;;;13.90;86.50;;;;;;5090199;28;19912;-82
2023/08/31 06:41:31;;;;;;;;;;;13.90;85.90;;;;;;5061929;28;19916;-84
2023/08/31 06:43:56;;;;;;;;;;;13.90;86.20;;;;;;5090718;28;20065;-83
2023/08/31 06:46:22;;;;;;;;;;;14.00;86.30;;;;;;5063794;28;19940;-83
2023/08/31 06:48:48;;;;;;;;;;;13.80;86.60;;;;;;5059591;28;20410;-84
2023/08/31 06:51:14;;;;;;;;;;;13.90;86.60;;;;;;5059213;28;19933;-82
2023/08/31 06:53:41;;;;;;;;;;;13.90;86.70;;;;;;5073234;28;19913;-84
2023/08/31 06:56:07;;;;;;;;;;;13.90;86.50;;;;;;5091792;28;19930;-84
2023/08/31 06:58:32;;;;;;;;;;;13.80;86.60;;;;;;5058598;28;19909;-84
2023/08/31 07:00:58;;;;;;;;;;;13.90;87.00;;;;;;5079352;28;19983;-84
2023/08/31 07:03:23;;;;;;;;;;;13.90;87.00;;;;;;5073743;28;19912;-84
2023/08/31 07:05:49;;;;;;;;;;;14.00;86.40;;;;;;5063343;28;19912;-84
2023/08/31 07:08:14;;;;;;;;;;;13.90;86.50;;;;;;5092426;28;19908;-83
2023/08/31 07:10:40;;;;;;;;;;;14.00;86.50;;;;;;5077241;28;19912;-85
2023/08/31 07:13:05;;;;;;;;;;;14.00;86.00;;;;;;5072450;28;19908;-84
2023/08/31 07:15:31;;;;;;;;;;;14.10;86.50;;;;;;5078991;28;19908;-84
2023/08/31 07:17:57;;;;;;;;;;;14.20;86.20;;;;;;5086424;28;19912;-83
2023/08/31 07:20:22;;;;;;;;;;;14.20;85.90;;;;;;5067040;28;19908;-84
2023/08/31 07:22:47;;;;;;;;;;;14.30;86.00;;;;;;5068638;28;19955;-84
2023/08/31 07:25:13;;;;;;;;;;;14.30;85.50;;;;;;5078163;28;20266;-84
2023/08/31 07:27:38;;;;;;;;;;;14.40;85.50;;;;;;5096244;28;19919;-83
2023/08/31 07:30:05;;;;;;;;;;;14.40;85.20;;;;;;5074444;28;19913;-84
2023/08/31 07:32:31;;;;;;;;;;;14.50;85.60;;;;;;5074179;28;19916;-84
2023/08/31 07:34:56;;;;;;;;;;;14.60;85.30;;;;;;5084031;28;19934;-84
2023/08/31 07:37:22;;;;;;;;;;;14.60;85.00;;;;;;5085085;28;19913;-84
2023/08/31 07:39:47;;;;;;;;;;;14.70;84.30;;;;;;5066005;28;19917;-84
2023/08/31 07:42:13;;;;;;;;;;;14.80;83.70;;;;;;5072593;28;19908;-83
2023/08/31 07:44:38;;;;;;;;;;;14.80;83.40;;;;;;5084014;28;19912;-84
2023/08/31 07:47:04;;;;;;;;;;;15.00;83.10;;;;;;5078515;28;19934;-84
2023/08/31 07:49:29;;;;;;;;;;;15.30;82.20;;;;;;5088722;28;20400;-85
2023/08/31 07:51:55;;;;;;;;;;;15.50;82.00;;;;;;5077922;28;19931;-84
2023/08/31 07:54:20;;;;;;;;;;;15.60;80.70;;;;;;5090674;28;19937;-84
2023/08/31 07:56:48;;;;;;;;;;;15.60;79.40;;;;;;5071548;28;19912;-85
2023/08/31 07:59:14;;;;;;;;;;;15.60;79.10;;;;;;5087580;28;20389;-85
2023/08/31 08:01:41;;;;;;;;;;;15.60;78.10;;;;;;5090834;28;19920;-84
2023/08/31 08:04:09;;;;;;;;;;;15.60;78.60;;;;;;5095602;28;20373;-84
2023/08/31 08:06:34;;;;;;;;;;;15.60;78.60;;;;;;5072499;28;19912;-84
2023/08/31 08:09:04;;;;;;;;;;;15.80;78.50;;;;;;5089508;28;19934;-85
2023/08/31 08:11:34;;;;;;;;;;;16.00;78.00;;;;;;5070772;28;20015;-84
2023/08/31 08:13:59;;;;;;;;;;;16.10;77.50;;;;;;5084375;28;19983;-84
2023/08/31 08:16:27;;;;;;;;;;;16.00;76.50;;;;;;5058369;28;19935;-84
2023/08/31 08:18:53;;;;;;;;;;;16.00;77.30;;;;;;5091146;28;19913;-84
2023/08/31 08:21:18;;;;;;;;;;;16.00;77.40;;;;;;5071449;28;20050;-86
2023/08/31 08:23:44;;;;;;;;;;;16.00;77.70;;;;;;5095649;28;20313;-84
2023/08/31 08:26:09;;;;;;;;;;;16.00;77.60;;;;;;5082812;28;19909;-83
2023/08/31 08:28:35;;;;;;;;;;;16.10;77.90;;;;;;5092320;28;20519;-83
2023/08/31 08:31:03;;;;;;;;;;;16.10;76.40;;;;;;5087637;28;19916;-83
2023/08/31 08:33:29;;;;;;;;;;;16.10;76.70;;;;;;5108924;22;19924;-83
2023/08/31 08:35:58;;;;;;;;;;;16.10;76.80;;;;;;5081743;28;19912;-82
2023/08/31 08:38:23;;;;;;;;;;;16.20;76.60;;;;;;5090750;28;19912;-81
2023/08/31 08:40:48;;;;;;;;;;;16.20;76.10;;;;;;5095029;28;20407;-81
2023/08/31 08:43:14;;;;;;;;;;;16.20;76.40;;;;;;5077213;28;19915;-81
2023/08/31 08:45:42;;;;;;;;;;;16.30;75.00;;;;;;5072740;28;19951;-82
2023/08/31 08:48:08;;;;;;;;;;;16.30;75.60;;;;;;5078711;28;20357;-83
2023/08/31 08:50:34;;;;;;;;;;;16.50;75.10;;;;;;5075769;28;19920;-82
2023/08/31 08:53:00;;;;;;;;;;;16.40;74.20;;;;;;5078632;28;19939;-83
2023/08/31 08:55:25;;;;;;;;;;;16.40;74.60;;;;;;5092715;28;20006;-83
2023/08/31 08:57:51;;;;;;;;;;;16.50;74.60;;;;;;5074734;28;19912;-83
2023/08/31 09:00:16;;;;;;;;;;;16.50;75.10;;;;;;5071376;28;19908;-83
2023/08/31 09:02:42;;;;;;;;;;;16.60;74.90;;;;;;5095698;28;19908;-83
2023/08/31 09:05:08;;;;;;;;;;;16.70;74.10;;;;;;5095040;28;19908;-82
2023/08/31 09:07:36;;;;;;;;;;;16.80;74.80;;;;;;5067721;28;20270;-82
2023/08/31 09:10:04;;;;;;;;;;;17.00;74.70;;;;;;5073776;28;19912;-85
2023/08/31 09:12:29;;;;;;;;;;;17.20;73.90;;;;;;5076755;28;20385;-84
2023/08/31 09:15:01;;;;;;;;;;;17.30;73.40;;;;;;5084668;28;20014;-80
2023/08/31 09:17:37;;;;;;;;;;;17.20;73.50;;;;;;5089017;28;19964;-81
2023/08/31 09:20:06;;;;;;;;;;;17.30;73.30;;;;;;5083230;28;19912;-82
2023/08/31 09:22:32;;;;;;;;;;;17.20;73.50;;;;;;5084547;28;19956;-82
2023/08/31 09:24:58;;;;;;;;;;;17.20;73.80;;;;;;5054311;28;19917;-82
2023/08/31 09:27:24;;;;;;;;;;;17.40;73.60;;;;;;5070213;28;19916;-83
2023/08/31 09:29:50;;;;;;;;;;;17.40;72.90;;;;;;5068296;28;20035;-81
2023/08/31 09:32:16;;;;;;;;;;;17.50;72.50;;;;;;5093482;28;19966;-81
2023/08/31 09:34:41;;;;;;;;;;;17.60;71.60;;;;;;5074686;28;19948;-82
2023/08/31 09:37:09;;;;;;;;;;;17.60;72.10;;;;;;5074836;28;19957;-81
2023/08/31 09:39:39;;;;;;;;;;;17.60;72.10;;;;;;5078492;28;19908;-83
2023/08/31 09:42:04;;;;;;;;;;;17.70;71.10;;;;;;5078973;28;19908;-82
2023/08/31 09:44:29;;;;;;;;;;;17.60;70.80;;;;;;5076269;28;19912;-83
2023/08/31 09:46:56;;;;;;;;;;;17.80;71.30;;;;;;5106000;28;19908;-81
2023/08/31 09:49:22;;;;;;;;;;;17.90;71.20;;;;;;5116111;28;19974;-83
2023/08/31 09:51:51;;;;;;;;;;;18.10;70.60;;;;;;5097157;28;20285;-81
2023/08/31 09:54:17;;;;;;;;;;;18.10;70.90;;;;;;5096651;28;19950;-83
2023/08/31 09:56:43;;;;;;;;;;;18.10;68.70;;;;;;5096465;28;19912;-83
2023/08/31 09:59:09;;;;;;;;;;;18.10;68.80;;;;;;5095890;28;19919;-83
2023/08/31 10:01:35;;;;;;;;;;;18.10;67.40;;;;;;5087081;28;19908;-83
2023/08/31 10:04:02;;;;;;;;;;;18.10;66.40;;;;;;5056174;28;19914;-83
2023/08/31 10:06:28;;;;;;;;;;;18.20;66.50;;;;;;5071224;28;19907;-82
2023/08/31 10:08:54;;;;;;;;;;;18.40;67.10;;;;;;5084430;28;19933;-82
2023/08/31 10:11:20;;;;;;;;;;;18.50;65.70;;;;;;5075777;28;20385;-82
2023/08/31 10:13:47;;;;;;;;;;;18.50;64.50;;;;;;5075757;28;19914;-80
2023/08/31 10:16:12;;;;;;;;;;;18.50;65.30;;;;;;5075310;28;19943;-83
2023/08/31 10:18:38;;;;;;;;;;;18.70;65.40;;;;;;5075133;28;19944;-83
2023/08/31 10:21:04;;;;;;;;;;;18.60;63.80;;;;;;5093204;28;19908;-82
2023/08/31 10:23:29;;;;;;;;;;;18.50;63.20;;;;;;5075157;28;19954;-82
2023/08/31 10:25:55;;;;;;;;;;;18.50;64.00;;;;;;5074507;28;19908;-82
2023/08/31 10:28:22;;;;;;;;;;;18.50;63.70;;;;;;5074193;28;19915;-81
2023/08/31 10:31:01;;;;;;;;;;;18.60;63.00;;;;;;5074917;28;20003;-82
2023/08/31 10:33:26;;;;;;;;;;;18.50;62.30;;;;;;5076084;28;19952;-83
2023/08/31 10:35:52;;;;;;;;;;;18.50;62.30;;;;;;5078531;28;19915;-82
2023/08/31 10:38:30;;;;;;;;;;;18.70;63.70;;;;;;5095323;28;19912;-82
2023/08/31 10:41:02;;;;;;;;;;;19.00;63.80;;;;;;5114899;28;19915;-81
2023/08/31 10:43:42;;;;;;;;;;;19.10;63.00;;;;;;5096313;28;19907;-82
2023/08/31 10:46:31;;;;;;;;;;;19.30;60.50;;;;;;5113514;28;19912;-81
2023/08/31 10:49:01;;;;;;;;;;;19.30;60.50;;;;;;5083544;28;19908;-82
2023/08/31 10:51:30;;;;;;;;;;;19.20;60.30;;;;;;5096285;28;20373;-81
2023/08/31 10:54:13;;;;;;;;;;;19.00;60.60;;;;;;5112305;28;20478;-82
2023/08/31 10:56:57;;;;;;;;;;;18.90;61.10;;;;;;5094547;28;19994;-81
2023/08/31 10:59:23;;;;;;;;;;;19.00;62.70;;;;;;5098027;28;19915;-82
2023/08/31 11:01:55;;;;;;;;;;;18.90;61.80;;;;;;5096864;28;19977;-83
2023/08/31 11:04:21;;;;;;;;;;;18.90;62.30;;;;;;5096195;28;20421;-82
2023/08/31 11:06:46;;;;;;;;;;;19.00;60.80;;;;;;5087685;28;19908;-83
2023/08/31 11:09:18;;;;;;;;;;;19.00;60.10;;;;;;5093053;28;19919;-81
2023/08/31 11:11:45;;;;;;;;;;;19.00;60.20;;;;;;5063343;28;19920;-82
2023/08/31 11:14:10;;;;;;;;;;;18.90;60.60;;;;;;5074943;28;20343;-81
2023/08/31 11:16:38;;;;;;;;;;;18.90;61.30;;;;;;5062714;28;19908;-82
2023/08/31 11:19:04;;;;;;;;;;;18.90;62.00;;;;;;5071969;28;20436;-81
2023/08/31 11:21:31;;;;;;;;;;;18.80;62.40;;;;;;5072417;28;19975;-82
2023/08/31 11:23:58;;;;;;;;;;;19.00;61.70;;;;;;5087868;28;19909;-81
2023/08/31 11:26:26;;;;;;;;;;;19.30;60.80;;;;;;5115557;28;19908;-82
2023/08/31 11:28:55;;;;;;;;;;;19.50;60.60;;;;;;5098860;28;19908;-82
2023/08/31 11:31:24;;;;;;;;;;;19.60;60.40;;;;;;5118543;28;19912;-82
2023/08/31 11:33:49;;;;;;;;;;;19.60;58.60;;;;;;5099873;28;19933;-81
2023/08/31 11:36:17;;;;;;;;;;;19.50;59.10;;;;;;5084254;28;20006;-82
2023/08/31 11:38:43;;;;;;;;;;;19.60;61.00;;;;;;5062322;28;19908;-82
2023/08/31 11:41:08;;;;;;;;;;;19.60;60.50;;;;;;5076419;28;19916;-82
2023/08/31 11:43:34;;;;;;;;;;;19.60;60.10;;;;;;5059171;28;20012;-83
2023/08/31 11:46:00;;;;;;;;;;;19.60;59.50;;;;;;5058325;28;19965;-81
2023/08/31 11:48:25;;;;;;;;;;;19.70;60.00;;;;;;5057966;28;19908;-82
2023/08/31 11:50:52;;;;;;;;;;;19.70;60.60;;;;;;5078869;28;20147;-82
2023/08/31 11:53:18;;;;;;;;;;;19.80;59.50;;;;;;5077434;28;19912;-84
2023/08/31 11:55:51;;;;;;;;;;;19.90;58.80;;;;;;5102543;28;19935;-82
2023/08/31 11:58:16;;;;;;;;;;;20.00;58.40;;;;;;5076414;28;19916;-81
2023/08/31 12:00:42;;;;;;;;;;;20.00;58.30;;;;;;5075574;28;19975;-82
2023/08/31 12:03:08;;;;;;;;;;;19.80;57.60;;;;;;5076315;28;19912;-82
2023/08/31 12:05:46;;;;;;;;;;;19.60;57.00;;;;;;5093822;28;19927;-81
2023/08/31 12:08:12;;;;;;;;;;;19.60;58.30;;;;;;5092510;28;19919;-82
2023/08/31 12:10:41;;;;;;;;;;;19.80;59.60;;;;;;5085897;28;19912;-82
2023/08/31 12:13:10;;;;;;;;;;;20.00;58.10;;;;;;5080938;28;19912;-82
2023/08/31 12:15:36;;;;;;;;;;;20.10;54.20;;;;;;5093220;28;19931;-80
2023/08/31 12:18:08;;;;;;;;;;;20.20;53.70;;;;;;5090561;28;20290;-81
2023/08/31 12:20:40;;;;;;;;;;;20.10;54.10;;;;;;5081435;28;20343;-80
2023/08/31 12:23:07;;;;;;;;;;;20.00;54.30;;;;;;5087505;28;20353;-80
2023/08/31 12:25:32;;;;;;;;;;;19.90;55.00;;;;;;5097825;28;19916;-80
2023/08/31 12:27:58;;;;;;;;;;;20.00;55.60;;;;;;5061020;28;19912;-82
2023/08/31 12:30:24;;;;;;;;;;;19.80;56.00;;;;;;5061812;28;19916;-83
2023/08/31 12:32:50;;;;;;;;;;;19.60;56.80;;;;;;5075017;28;19916;-84
2023/08/31 12:35:15;;;;;;;;;;;19.60;58.40;;;;;;5097611;28;19983;-81
2023/08/31 12:37:41;;;;;;;;;;;19.60;58.40;;;;;;5092392;28;20043;-83
2023/08/31 12:40:09;;;;;;;;;;;19.60;59.80;;;;;;5105451;28;20007;-82
2023/08/31 12:42:34;;;;;;;;;;;19.60;60.00;;;;;;5083163;28;19919;-82
2023/08/31 12:45:00;;;;;;;;;;;19.80;60.10;;;;;;5099668;28;19990;-82
2023/08/31 12:47:26;;;;;;;;;;;20.10;59.10;;;;;;5089320;28;20598;-83
2023/08/31 12:49:51;;;;;;;;;;;20.10;59.30;;;;;;5066288;28;19917;-82
2023/08/31 12:52:17;;;;;;;;;;;20.10;59.40;;;;;;5093009;28;19913;-83
2023/08/31 12:54:42;;;;;;;;;;;20.10;59.00;;;;;;5090511;28;20416;-83
2023/08/31 12:57:07;;;;;;;;;;;20.10;58.90;;;;;;5099240;28;19919;-83
2023/08/31 12:59:33;;;;;;;;;;;20.00;59.10;;;;;;5085459;28;19938;-83
2023/08/31 13:01:58;;;;;;;;;;;20.00;59.40;;;;;;5089870;28;19912;-82
2023/08/31 13:04:24;;;;;;;;;;;20.00;58.50;;;;;;5088974;28;19908;-83
2023/08/31 13:06:50;;;;;;;;;;;19.90;59.80;;;;;;5082089;28;20408;-83
2023/08/31 13:09:18;;;;;;;;;;;19.90;59.60;;;;;;5112996;28;20349;-82
2023/08/31 13:11:43;;;;;;;;;;;20.00;59.20;;;;;;5102660;28;19912;-83
2023/08/31 13:14:09;;;;;;;;;;;20.00;59.30;;;;;;5103566;28;20829;-81
2023/08/31 13:16:36;;;;;;;;;;;20.10;59.50;;;;;;5097101;28;19912;-82
2023/08/31 13:19:02;;;;;;;;;;;20.10;58.70;;;;;;5089574;28;19920;-83
2023/08/31 13:21:28;;;;;;;;;;;20.10;58.90;;;;;;5108868;28;20335;-81
2023/08/31 13:23:53;;;;;;;;;;;20.00;59.30;;;;;;5090536;28;19908;-83
2023/08/31 13:26:19;;;;;;;;;;;20.20;59.90;;;;;;5100213;28;19954;-82
2023/08/31 13:28:44;;;;;;;;;;;20.40;59.10;;;;;;5091610;28;19908;-83
2023/08/31 13:31:11;;;;;;;;;;;20.50;58.90;;;;;;5094068;28;19973;-83
2023/08/31 13:33:37;;;;;;;;;;;20.60;57.10;;;;;;5091844;28;20007;-83
2023/08/31 13:36:03;;;;;;;;;;;20.70;58.40;;;;;;5093321;28;19943;-83
2023/08/31 13:38:28;;;;;;;;;;;20.60;57.70;;;;;;5103124;28;19912;-83
2023/08/31 13:40:56;;;;;;;;;;;20.60;57.20;;;;;;5114589;28;19937;-83
2023/08/31 13:43:22;;;;;;;;;;;20.60;58.00;;;;;;5110479;28;20019;-83
2023/08/31 13:45:51;;;;;;;;;;;20.50;58.20;;;;;;5096656;28;19909;-83
2023/08/31 13:48:17;;;;;;;;;;;20.50;59.20;;;;;;5114335;28;20392;-81
2023/08/31 13:50:42;;;;;;;;;;;20.70;57.90;;;;;;5104217;28;19915;-82
2023/08/31 13:53:08;;;;;;;;;;;20.80;56.90;;;;;;5083276;28;19970;-82
2023/08/31 13:55:35;;;;;;;;;;;20.60;57.40;;;;;;5087306;28;20004;-83
2023/08/31 13:58:05;;;;;;;;;;;20.70;58.30;;;;;;5101423;28;19919;-82
2023/08/31 14:00:30;;;;;;;;;;;20.60;57.20;;;;;;5081565;28;19920;-82
2023/08/31 14:02:58;;;;;;;;;;;20.60;58.40;;;;;;5083535;28;19919;-83
2023/08/31 14:05:23;;;;;;;;;;;20.70;59.00;;;;;;5082655;28;20281;-83
2023/08/31 14:07:49;;;;;;;;;;;20.90;58.10;;;;;;5086779;28;19912;-84
2023/08/31 14:10:15;;;;;;;;;;;21.00;57.30;;;;;;5082680;28;19920;-84
2023/08/31 14:12:40;;;;;;;;;;;21.00;58.30;;;;;;5100262;28;19922;-84